Athol, Idaho
Current Conditions -  °F | °C
As of 2:15 PM on Sunday 23 Nov 2014 (Local Time) from KCOE Reporting Station
Overcast Overcast  
Wind Chill: -2°   Ceiling: 1500
Heat Index:   Visibility: 7mi
Dew Point:   Wind: 15mph
Humidity: 93%   Direction: 230°SW
Pressure: 29.97"   Gusts: NA
Location:  47.95°N, 116.71°W
Report Text: KCOE 232215Z AUTO 23013KT 7SM BKN015 OVC020 03/02 A2997 RMK AO1 P0005
Loading
Personal Weather Stations






























Interactive Weather Map New forecast layout! Learn more

10-Day Weather Forecast

Advertisements
Track Severe Weather on mobile